createdAt,value
2018-03-04T00:00:56.916Z,-3.43
2018-03-04T00:03:22.958Z,-3.44
2018-03-04T00:05:48.993Z,-3.36
2018-03-04T00:08:15.082Z,-3.36
2018-03-04T00:10:41.170Z,-3.30
2018-03-04T00:13:07.190Z,-3.43
2018-03-04T00:15:33.251Z,-3.37
2018-03-04T00:17:59.298Z,-3.35
2018-03-04T00:20:25.358Z,-3.32
2018-03-04T00:22:51.400Z,-3.27
2018-03-04T00:25:17.416Z,-3.24
2018-03-04T00:27:50.511Z,-3.24
2018-03-04T00:30:16.525Z,-3.27
2018-03-04T00:32:42.581Z,-3.28
2018-03-04T00:35:08.577Z,-3.30
2018-03-04T00:37:34.600Z,-3.37
2018-03-04T00:40:00.622Z,-3.30
2018-03-04T00:42:26.649Z,-3.23
2018-03-04T00:44:52.669Z,-3.10
2018-03-04T00:47:18.700Z,-3.27
2018-03-04T00:49:44.837Z,-3.26
2018-03-04T00:52:10.891Z,-3.26
2018-03-04T00:54:36.889Z,-3.24
2018-03-04T00:57:02.959Z,-3.22
2018-03-04T00:59:29.053Z,-3.18
2018-03-04T01:01:55.095Z,-3.07
2018-03-04T01:04:21.125Z,-3.06
2018-03-04T01:06:47.150Z,-3.07
2018-03-04T01:09:13.214Z,-3.08
2018-03-04T01:11:39.296Z,-3.18
2018-03-04T01:14:05.404Z,-3.12
2018-03-04T01:16:31.401Z,-3.17
2018-03-04T01:18:57.418Z,-3.25
2018-03-04T01:21:23.405Z,-3.26
2018-03-04T01:23:49.517Z,-3.19
2018-03-04T01:26:22.442Z,-3.16
2018-03-04T01:28:48.433Z,-3.09
2018-03-04T01:31:14.450Z,-3.09
2018-03-04T01:33:40.450Z,-3.05
2018-03-04T01:36:06.465Z,-3.18
2018-03-04T01:38:32.416Z,-3.13
2018-03-04T01:40:58.452Z,-3.19
2018-03-04T01:43:24.484Z,-3.12
2018-03-04T01:45:50.536Z,-3.14
2018-03-04T01:48:16.565Z,-3.14
2018-03-04T01:50:42.588Z,-3.09
2018-03-04T01:53:08.573Z,-3.08
2018-03-04T01:55:34.614Z,-3.10
2018-03-04T01:58:00.678Z,-3.10
2018-03-04T02:00:26.673Z,-3.02
2018-03-04T02:02:52.764Z,-3.02
2018-03-04T02:05:18.766Z,-3.08
2018-03-04T02:07:44.791Z,-3.09
2018-03-04T02:10:10.812Z,-3.06
2018-03-04T02:12:36.819Z,-3.02
2018-03-04T02:15:03.429Z,-2.98
2018-03-04T02:17:29.490Z,-2.90
2018-03-04T02:19:55.525Z,-2.99
2018-03-04T02:22:21.565Z,-3.09
2018-03-04T02:24:47.624Z,-3.05
2018-03-04T02:27:13.722Z,-3.03
2018-03-04T02:29:39.745Z,-3.17
2018-03-04T02:32:05.803Z,-3.15
2018-03-04T02:34:31.847Z,-3.21
2018-03-04T02:36:57.862Z,-3.23
2018-03-04T02:39:23.831Z,-3.13
2018-03-04T02:41:49.849Z,-3.15
2018-03-04T02:44:15.906Z,-3.20
2018-03-04T02:46:41.958Z,-3.05
2018-03-04T02:49:07.975Z,-3.14
2018-03-04T02:51:33.975Z,-2.97
2018-03-04T02:53:59.976Z,-2.93
2018-03-04T02:56:26.006Z,-2.98
2018-03-04T02:58:52.009Z,-3.09
2018-03-04T03:01:18.105Z,-3.08
2018-03-04T03:03:44.073Z,-3.03
2018-03-04T03:06:10.073Z,-3.18
2018-03-04T03:08:36.073Z,-3.15
2018-03-04T03:11:02.035Z,-3.20
2018-03-04T03:13:28.084Z,-3.18
2018-03-04T03:15:54.030Z,-3.18
2018-03-04T03:18:20.022Z,-3.29
2018-03-04T03:20:46.057Z,-3.15
2018-03-04T03:23:12.032Z,-3.09
2018-03-04T03:25:38.092Z,-3.20
2018-03-04T03:28:04.124Z,-3.17
2018-03-04T03:30:30.125Z,-3.16
2018-03-04T03:32:56.129Z,-3.16
2018-03-04T03:35:22.202Z,-3.28
2018-03-04T03:37:48.210Z,-3.19
2018-03-04T03:40:14.221Z,-3.16
2018-03-04T03:42:40.177Z,-3.03
2018-03-04T03:45:06.194Z,-3.20
2018-03-04T03:47:32.214Z,-3.05
2018-03-04T03:49:58.191Z,-3.14
2018-03-04T03:52:24.218Z,-3.09
2018-03-04T03:54:50.298Z,-3.13
2018-03-04T03:57:16.300Z,-3.04
2018-03-04T03:59:42.338Z,-3.08
2018-03-04T04:02:08.418Z,-3.25
2018-03-04T04:04:34.409Z,-3.17
2018-03-04T04:07:00.465Z,-3.12
2018-03-04T04:09:26.507Z,-3.26
2018-03-04T04:11:52.482Z,-3.15
2018-03-04T04:14:18.503Z,-3.24
2018-03-04T04:16:44.676Z,-3.27
2018-03-04T04:19:10.685Z,-3.11
2018-03-04T04:21:36.798Z,-3.21
2018-03-04T04:24:02.805Z,-3.31
2018-03-04T04:26:29.031Z,-3.28
2018-03-04T04:28:55.155Z,-3.43
2018-03-04T04:31:21.178Z,-3.38
2018-03-04T04:33:47.217Z,-3.47
2018-03-04T04:36:13.238Z,-3.45
2018-03-04T04:38:39.245Z,-3.35
2018-03-04T04:41:05.306Z,-3.15
2018-03-04T04:43:31.353Z,-3.21
2018-03-04T04:45:57.457Z,-3.24
2018-03-04T04:48:23.537Z,-3.12
2018-03-04T04:50:49.591Z,-3.03
2018-03-04T04:53:15.621Z,-3.07
2018-03-04T04:55:41.645Z,-3.01
2018-03-04T04:58:07.662Z,-3.14
2018-03-04T05:00:33.812Z,-3.20
2018-03-04T05:02:59.908Z,-3.22
2018-03-04T05:05:25.899Z,-3.15
2018-03-04T05:07:52.030Z,-2.95
2018-03-04T05:10:18.026Z,-3.02
2018-03-04T05:12:44.042Z,-2.95
2018-03-04T05:15:10.174Z,-3.16
2018-03-04T05:17:36.166Z,-3.06
2018-03-04T05:20:02.235Z,-3.08
2018-03-04T05:22:28.239Z,-3.05
2018-03-04T05:24:54.254Z,-2.97
2018-03-04T05:27:20.238Z,-3.19
2018-03-04T05:29:46.212Z,-3.22
2018-03-04T05:32:12.293Z,-3.15
2018-03-04T05:34:38.292Z,-3.11
2018-03-04T05:37:04.310Z,-3.09
2018-03-04T05:39:30.318Z,-3.03
2018-03-04T05:41:56.324Z,-3.07
2018-03-04T05:44:22.322Z,-3.08
2018-03-04T05:46:48.392Z,-2.97
2018-03-04T05:49:14.390Z,-3.09
2018-03-04T05:51:40.422Z,-2.98
2018-03-04T05:54:06.550Z,-2.91
2018-03-04T05:56:32.584Z,-2.93
2018-03-04T05:58:58.653Z,-2.97
2018-03-04T06:01:24.736Z,-2.96
2018-03-04T06:03:50.736Z,-3.03
2018-03-04T06:06:16.805Z,-2.85
2018-03-04T06:08:43.701Z,-3.00
2018-03-04T06:11:09.809Z,-2.92
2018-03-04T06:13:35.797Z,-2.94
2018-03-04T06:16:01.916Z,-3.04
2018-03-04T06:18:27.950Z,-3.12
2018-03-04T06:20:53.950Z,-3.11
2018-03-04T06:23:19.968Z,-3.13
2018-03-04T06:25:45.988Z,-3.01
2018-03-04T06:28:12.010Z,-2.97
2018-03-04T06:30:38.002Z,-2.96
2018-03-04T06:33:04.114Z,-2.99
2018-03-04T06:35:30.093Z,-3.01
2018-03-04T06:37:56.188Z,-2.86
2018-03-04T06:40:22.229Z,-2.78
2018-03-04T06:42:48.218Z,-2.58
2018-03-04T06:45:14.179Z,-2.74
2018-03-04T06:47:40.242Z,-2.53
2018-03-04T06:50:06.429Z,-2.56
2018-03-04T06:52:32.420Z,-2.60
2018-03-04T06:54:58.534Z,-2.68
2018-03-04T06:57:24.542Z,-2.62
2018-03-04T06:59:50.573Z,-2.55
2018-03-04T07:02:16.696Z,-2.60
2018-03-04T07:04:42.721Z,-2.52
2018-03-04T07:07:08.765Z,-2.53
2018-03-04T07:09:34.796Z,-2.66
2018-03-04T07:12:00.885Z,-2.51
2018-03-04T07:14:26.910Z,-2.64
2018-03-04T07:16:52.904Z,-2.58
2018-03-04T07:19:18.906Z,-2.56
2018-03-04T07:21:44.898Z,-2.50
2018-03-04T07:24:10.936Z,-2.46
2018-03-04T07:26:36.916Z,-2.37
2018-03-04T07:29:02.909Z,-2.29
2018-03-04T07:31:28.971Z,-2.30
2018-03-04T07:33:55.262Z,-2.34
2018-03-04T07:36:21.229Z,-2.20
2018-03-04T07:38:47.336Z,-2.18
2018-03-04T07:41:13.365Z,-2.15
2018-03-04T07:43:39.373Z,-2.14
2018-03-04T07:46:05.463Z,-2.32
2018-03-04T07:48:31.455Z,-2.25
2018-03-04T07:50:57.493Z,-2.29
2018-03-04T07:53:23.525Z,-2.09
2018-03-04T07:55:49.620Z,-2.07
2018-03-04T07:58:15.645Z,-1.96
2018-03-04T08:00:41.657Z,-1.93
2018-03-04T08:03:07.693Z,-2.00
2018-03-04T08:05:33.722Z,-1.88
2018-03-04T08:07:59.713Z,-1.73
2018-03-04T08:10:25.741Z,-1.64
2018-03-04T08:12:51.838Z,-1.64
2018-03-04T08:15:17.810Z,-1.44
2018-03-04T08:17:43.844Z,-1.68
2018-03-04T08:20:09.900Z,-1.75
2018-03-04T08:22:35.941Z,-1.96
2018-03-04T08:25:14.215Z,-1.83
2018-03-04T08:27:52.581Z,-1.83
2018-03-04T08:30:18.598Z,-1.70
2018-03-04T08:32:44.627Z,-1.69
2018-03-04T08:35:10.855Z,-1.53
2018-03-04T08:37:36.866Z,-1.55
2018-03-04T08:40:04.604Z,-1.46
2018-03-04T08:42:30.639Z,-1.37
2018-03-04T08:44:56.673Z,-1.69
2018-03-04T08:47:22.703Z,-1.55
2018-03-04T08:49:48.720Z,-1.42
2018-03-04T08:52:14.736Z,-1.43
2018-03-04T08:54:40.806Z,-1.30
2018-03-04T08:57:06.857Z,-1.13
2018-03-04T08:59:32.859Z,-0.93
2018-03-04T09:01:58.909Z,-1.09
2018-03-04T09:04:25.013Z,-0.87
2018-03-04T09:06:51.153Z,-0.95
2018-03-04T09:09:17.142Z,-0.96
2018-03-04T09:11:43.157Z,-0.98
2018-03-04T09:14:09.194Z,-0.70
2018-03-04T09:16:35.204Z,-0.56
2018-03-04T09:19:01.249Z,-0.56
2018-03-04T09:21:27.194Z,-0.37
2018-03-04T09:23:53.194Z,-0.69
2018-03-04T09:26:19.221Z,-0.64
2018-03-04T09:28:45.254Z,-0.76
2018-03-04T09:31:11.234Z,-0.79
2018-03-04T09:33:37.194Z,-0.58
2018-03-04T09:36:03.241Z,-0.39
2018-03-04T09:38:29.299Z,-0.17
2018-03-04T09:40:55.367Z,-0.36
2018-03-04T09:43:21.370Z,-0.19
2018-03-04T09:45:47.378Z,-0.10
2018-03-04T09:48:13.413Z,-0.54
2018-03-04T09:50:39.385Z,-0.58
2018-03-04T09:53:05.398Z,-0.63
2018-03-04T09:55:31.441Z,-0.11
2018-03-04T09:57:57.488Z,0.17
2018-03-04T10:00:23.527Z,0.32
2018-03-04T10:02:49.656Z,0.32
2018-03-04T10:05:15.694Z,0.57
2018-03-04T10:07:41.685Z,0.73
2018-03-04T10:10:07.768Z,0.66
2018-03-04T10:12:33.817Z,0.74
2018-03-04T10:15:06.907Z,0.51
2018-03-04T10:17:32.910Z,0.61
2018-03-04T10:19:58.973Z,0.17
2018-03-04T10:22:25.061Z,0.25
2018-03-04T10:24:51.105Z,0.41
2018-03-04T10:27:17.161Z,0.24
2018-03-04T10:29:43.116Z,0.68
2018-03-04T10:32:09.254Z,0.93
2018-03-04T10:34:35.281Z,0.88
2018-03-04T10:37:01.363Z,1.06
2018-03-04T10:39:27.465Z,0.93
2018-03-04T10:41:53.477Z,0.98
2018-03-04T10:44:19.624Z,1.18
2018-03-04T10:46:45.613Z,1.26
2018-03-04T10:49:11.635Z,1.54
2018-03-04T10:51:37.722Z,1.19
2018-03-04T10:54:03.801Z,1.22
2018-03-04T10:56:29.933Z,1.13
2018-03-04T10:58:55.961Z,1.48
2018-03-04T11:01:28.098Z,1.66
2018-03-04T11:03:54.306Z,1.82
2018-03-04T11:06:20.309Z,1.69
2018-03-04T11:08:46.339Z,2.04
2018-03-04T11:11:12.375Z,2.39
2018-03-04T11:13:38.404Z,1.92
2018-03-04T11:16:04.416Z,2.36
2018-03-04T11:18:30.426Z,2.56
2018-03-04T11:20:56.490Z,2.25
2018-03-04T11:23:22.527Z,2.43
2018-03-04T11:25:48.577Z,2.23
2018-03-04T11:28:14.646Z,2.60
2018-03-04T11:30:40.740Z,2.67
2018-03-04T11:33:06.750Z,2.73
2018-03-04T11:35:32.806Z,2.68
2018-03-04T11:37:58.858Z,2.99
2018-03-04T11:40:24.841Z,2.75
2018-03-04T11:42:50.884Z,2.68
2018-03-04T11:45:16.849Z,3.00
2018-03-04T11:47:43.021Z,2.48
2018-03-04T11:50:09.253Z,2.41
2018-03-04T11:52:35.261Z,2.83
2018-03-04T11:55:01.352Z,3.03
2018-03-04T11:57:27.366Z,2.91
2018-03-04T11:59:53.425Z,2.68
2018-03-04T12:02:19.489Z,3.28
2018-03-04T12:04:45.560Z,3.45
2018-03-04T12:07:11.578Z,3.10
2018-03-04T12:09:37.698Z,3.29
2018-03-04T12:12:03.670Z,3.28
2018-03-04T12:14:29.683Z,3.57
2018-03-04T12:16:55.764Z,3.20
2018-03-04T12:19:21.791Z,3.08
2018-03-04T12:21:47.904Z,3.28
2018-03-04T12:24:13.914Z,3.60
2018-03-04T12:26:39.910Z,3.53
2018-03-04T12:29:05.937Z,3.43
2018-03-04T12:31:32.010Z,3.38
2018-03-04T12:33:58.045Z,4.12
2018-03-04T12:36:24.033Z,3.78
2018-03-04T12:38:50.094Z,3.72
2018-03-04T12:41:16.117Z,3.46
2018-03-04T12:43:42.152Z,3.72
2018-03-04T12:46:08.193Z,4.01
2018-03-04T12:48:34.218Z,4.04
2018-03-04T12:51:00.298Z,4.87
2018-03-04T12:53:26.272Z,4.90
2018-03-04T12:55:52.299Z,5.56
2018-03-04T12:58:18.385Z,5.96
2018-03-04T13:00:44.445Z,6.45
2018-03-04T13:03:10.506Z,6.82
2018-03-04T13:05:36.513Z,6.97
2018-03-04T13:08:02.518Z,7.17
2018-03-04T13:10:28.588Z,7.17
2018-03-04T13:12:54.610Z,7.22
2018-03-04T13:15:20.677Z,6.52
2018-03-04T13:17:46.654Z,7.30
2018-03-04T13:20:12.679Z,7.82
2018-03-04T13:22:38.654Z,7.54
2018-03-04T13:25:04.673Z,7.37
2018-03-04T13:27:30.725Z,8.24
2018-03-04T13:29:56.741Z,8.52
2018-03-04T13:32:22.773Z,8.72
2018-03-04T13:34:48.793Z,8.52
2018-03-04T13:37:14.798Z,8.63
2018-03-04T13:39:40.842Z,8.71
2018-03-04T13:42:06.886Z,8.89
2018-03-04T13:44:32.909Z,8.37
2018-03-04T13:46:58.966Z,8.49
2018-03-04T13:49:25.034Z,9.01
2018-03-04T13:51:51.067Z,9.28
2018-03-04T13:54:17.111Z,8.27
2018-03-04T13:56:43.276Z,8.46
2018-03-04T13:59:09.411Z,8.90
2018-03-04T14:01:35.505Z,8.15
2018-03-04T14:04:01.533Z,8.08
2018-03-04T14:06:27.573Z,7.91
2018-03-04T14:08:53.641Z,7.43
2018-03-04T14:11:19.646Z,8.43
2018-03-04T14:13:45.650Z,8.91
2018-03-04T14:16:11.672Z,8.60
2018-03-04T14:18:37.733Z,9.34
2018-03-04T14:21:03.731Z,9.43
2018-03-04T14:23:29.774Z,9.53
2018-03-04T14:25:56.125Z,9.33
2018-03-04T14:28:22.118Z,9.87
2018-03-04T14:30:48.297Z,8.72
2018-03-04T14:33:14.344Z,8.33
2018-03-04T14:35:40.401Z,8.58
2018-03-04T14:38:06.453Z,8.80
2018-03-04T14:40:32.449Z,9.24
2018-03-04T14:42:58.442Z,8.73
2018-03-04T14:45:24.511Z,8.56
2018-03-04T14:47:50.609Z,7.92
2018-03-04T14:50:16.699Z,8.60
2018-03-04T14:52:45.783Z,8.45
2018-03-04T14:55:11.801Z,8.92
2018-03-04T14:57:37.849Z,9.21
2018-03-04T15:00:03.808Z,9.42
2018-03-04T15:02:29.841Z,7.30
2018-03-04T15:04:55.905Z,7.29
2018-03-04T15:07:21.935Z,7.31
2018-03-04T15:09:47.934Z,7.59
2018-03-04T15:12:13.973Z,7.27
2018-03-04T15:14:40.024Z,7.28
2018-03-04T15:17:06.034Z,7.49
2018-03-04T15:19:32.113Z,8.45
2018-03-04T15:21:58.182Z,8.29
2018-03-04T15:24:24.368Z,8.19
2018-03-04T15:26:50.391Z,7.89
2018-03-04T15:29:16.319Z,7.91
2018-03-04T15:31:42.448Z,7.79
2018-03-04T15:34:08.459Z,7.34
2018-03-04T15:39:07.406Z,5.90
2018-03-04T15:41:33.452Z,5.99
2018-03-04T15:43:59.471Z,5.94
2018-03-04T15:46:25.509Z,5.72
2018-03-04T15:48:51.592Z,5.32
2018-03-04T15:51:17.619Z,5.23
2018-03-04T15:53:43.654Z,5.16
2018-03-04T15:56:09.718Z,5.00
2018-03-04T15:58:35.694Z,4.95
2018-03-04T16:01:01.746Z,4.81
2018-03-04T16:03:27.770Z,4.93
2018-03-04T16:05:53.749Z,4.92
2018-03-04T16:08:19.800Z,4.84
2018-03-04T16:10:45.805Z,4.74
2018-03-04T16:13:11.882Z,4.67
2018-03-04T16:15:37.998Z,4.58
2018-03-04T16:18:03.998Z,4.50
2018-03-04T16:20:30.017Z,4.50
2018-03-04T16:22:56.041Z,4.35
2018-03-04T16:25:22.117Z,4.27
2018-03-04T16:27:48.131Z,4.08
2018-03-04T16:30:14.157Z,3.98
2018-03-04T16:32:40.241Z,3.88
2018-03-04T16:35:06.362Z,3.77
2018-03-04T16:37:32.477Z,3.66
2018-03-04T16:39:58.477Z,3.61
2018-03-04T16:42:24.552Z,3.48
2018-03-04T16:44:50.630Z,3.47
2018-03-04T16:47:16.681Z,3.37
2018-03-04T16:49:42.713Z,3.25
2018-03-04T16:52:08.806Z,3.13
2018-03-04T16:54:34.754Z,3.15
2018-03-04T16:57:00.754Z,3.18
2018-03-04T16:59:26.768Z,3.08
2018-03-04T17:01:52.967Z,3.22
2018-03-04T17:04:18.993Z,3.09
2018-03-04T17:06:45.050Z,2.98
2018-03-04T17:09:11.097Z,3.02
2018-03-04T17:11:37.113Z,2.89
2018-03-04T17:14:03.234Z,2.74
2018-03-04T17:16:29.416Z,2.57
2018-03-04T17:18:55.430Z,2.59
2018-03-04T17:21:21.589Z,2.60
2018-03-04T17:23:47.674Z,2.53
2018-03-04T17:26:13.760Z,2.53
2018-03-04T17:28:39.783Z,2.44
2018-03-04T17:31:05.819Z,2.35
2018-03-04T17:33:31.902Z,2.29
2018-03-04T17:35:57.849Z,2.28
2018-03-04T17:38:23.846Z,2.20
2018-03-04T17:40:49.965Z,2.06
2018-03-04T17:43:15.946Z,2.00
2018-03-04T17:45:41.962Z,1.97
2018-03-04T17:48:07.979Z,1.75
2018-03-04T17:50:33.977Z,1.66
2018-03-04T17:53:00.016Z,1.65
2018-03-04T17:55:26.125Z,1.59
2018-03-04T17:57:52.216Z,1.64
2018-03-04T18:00:18.360Z,1.61
2018-03-04T18:02:44.616Z,1.56
2018-03-04T18:05:10.616Z,1.51
2018-03-04T18:07:36.906Z,1.51
2018-03-04T18:10:03.167Z,1.54
2018-03-04T18:12:29.238Z,1.59
2018-03-04T18:14:55.337Z,1.55
2018-03-04T18:17:21.388Z,1.53
2018-03-04T18:19:47.429Z,1.54
2018-03-04T18:22:13.460Z,1.50
2018-03-04T18:24:39.601Z,1.56
2018-03-04T18:27:05.669Z,1.69
2018-03-04T18:29:31.772Z,1.57
2018-03-04T18:31:57.759Z,1.43
2018-03-04T18:34:23.808Z,1.23
2018-03-04T18:36:49.853Z,1.26
2018-03-04T18:39:15.873Z,1.10
2018-03-04T18:41:41.906Z,0.94
2018-03-04T18:44:07.977Z,0.86
2018-03-04T18:46:34.278Z,0.82
2018-03-04T18:49:01.341Z,0.91
2018-03-04T18:51:27.426Z,0.86
2018-03-04T18:53:53.511Z,0.83
2018-03-04T18:56:19.606Z,0.72
2018-03-04T18:58:45.664Z,0.44
2018-03-04T19:01:11.688Z,0.48
2018-03-04T19:03:37.802Z,0.56
2018-03-04T19:06:03.820Z,0.50
2018-03-04T19:08:29.869Z,0.32
2018-03-04T19:10:55.929Z,0.37
2018-03-04T19:13:21.981Z,0.39
2018-03-04T19:15:48.139Z,0.29
2018-03-04T19:18:14.169Z,0.36
2018-03-04T19:20:40.260Z,0.32
2018-03-04T19:23:06.314Z,0.29
2018-03-04T19:25:32.341Z,0.25
2018-03-04T19:27:58.360Z,0.26
2018-03-04T19:30:24.938Z,0.21
2018-03-04T19:32:51.020Z,0.13
2018-03-04T19:35:17.036Z,0.12
2018-03-04T19:37:43.103Z,-0.04
2018-03-04T19:40:09.134Z,0.03
2018-03-04T19:42:38.847Z,0.06
2018-03-04T19:45:04.973Z,0.08
2018-03-04T19:47:31.096Z,0.09
2018-03-04T19:49:57.195Z,0.04
2018-03-04T19:52:23.214Z,0.11
2018-03-04T19:54:49.257Z,0.11
2018-03-04T19:57:15.241Z,0.16
2018-03-04T19:59:41.295Z,0.16
2018-03-04T20:02:07.238Z,0.18
2018-03-04T20:04:33.273Z,0.28
2018-03-04T20:06:59.386Z,0.27
2018-03-04T20:09:25.395Z,0.33
2018-03-04T20:11:51.444Z,0.33
2018-03-04T20:14:17.490Z,0.37
2018-03-04T20:16:43.649Z,0.41
2018-03-04T20:19:09.738Z,0.41
2018-03-04T20:21:35.884Z,0.40
2018-03-04T20:24:01.983Z,0.49
2018-03-04T20:26:28.009Z,0.60
2018-03-04T20:28:54.105Z,0.62
2018-03-04T20:31:20.209Z,0.60
2018-03-04T20:33:46.316Z,0.70
2018-03-04T20:36:12.427Z,0.54
2018-03-04T20:38:38.498Z,0.54
2018-03-04T20:41:04.641Z,0.63
2018-03-04T20:43:30.753Z,0.58
2018-03-04T20:45:56.911Z,0.50
2018-03-04T20:48:23.024Z,0.54
2018-03-04T20:50:49.094Z,0.61
2018-03-04T20:53:15.094Z,0.55
2018-03-04T20:55:41.162Z,0.64
2018-03-04T20:58:07.229Z,0.57
2018-03-04T21:00:33.238Z,0.49
2018-03-04T21:02:59.249Z,0.51
2018-03-04T21:05:25.273Z,0.46
2018-03-04T21:07:51.368Z,0.46
2018-03-04T21:10:17.340Z,0.51
2018-03-04T21:12:43.388Z,0.47
2018-03-04T21:15:09.450Z,0.48
2018-03-04T21:17:35.493Z,0.49
2018-03-04T21:20:01.544Z,0.51
2018-03-04T21:22:27.624Z,0.53
2018-03-04T21:24:53.713Z,0.56
2018-03-04T21:27:19.734Z,0.43
2018-03-04T21:29:45.786Z,0.41
2018-03-04T21:32:11.800Z,0.39
2018-03-04T21:34:37.865Z,0.36
2018-03-04T21:37:03.916Z,0.38
2018-03-04T21:39:29.993Z,0.34
2018-03-04T21:41:56.027Z,0.28
2018-03-04T21:44:22.029Z,0.23
2018-03-04T21:46:48.069Z,0.31
2018-03-04T21:49:14.117Z,0.29
2018-03-04T21:51:40.093Z,0.33
2018-03-04T21:54:06.152Z,0.37
2018-03-04T21:56:32.183Z,0.37
2018-03-04T21:58:58.233Z,0.38
2018-03-04T22:01:24.297Z,0.40
2018-03-04T22:03:50.337Z,0.42
2018-03-04T22:06:16.405Z,0.47
2018-03-04T22:08:42.402Z,0.54
2018-03-04T22:11:08.482Z,0.59
2018-03-04T22:13:34.529Z,0.62
2018-03-04T22:16:00.578Z,0.61
2018-03-04T22:18:26.661Z,0.58
2018-03-04T22:20:52.629Z,0.56
2018-03-04T22:23:18.686Z,0.65
2018-03-04T22:25:44.759Z,0.65
2018-03-04T22:28:10.721Z,0.72
2018-03-04T22:30:36.712Z,0.70
2018-03-04T22:33:02.754Z,0.64
2018-03-04T22:35:28.812Z,0.67
2018-03-04T22:37:54.921Z,0.68
2018-03-04T22:40:20.921Z,0.69
2018-03-04T22:42:46.993Z,0.73
2018-03-04T22:45:13.013Z,0.66
2018-03-04T22:47:39.059Z,0.64
2018-03-04T22:50:05.096Z,0.59
2018-03-04T22:52:31.162Z,0.60
2018-03-04T22:54:57.120Z,0.56
2018-03-04T22:57:23.168Z,0.57
2018-03-04T22:59:49.218Z,0.55
2018-03-04T23:02:15.214Z,0.57
2018-03-04T23:04:41.204Z,0.58
2018-03-04T23:07:07.256Z,0.63
2018-03-04T23:09:33.299Z,0.55
2018-03-04T23:11:59.353Z,0.49
2018-03-04T23:14:25.423Z,0.50
2018-03-04T23:16:51.525Z,0.43
2018-03-04T23:19:17.534Z,0.49
2018-03-04T23:21:43.605Z,0.41
2018-03-04T23:24:09.650Z,0.42
2018-03-04T23:26:35.662Z,0.43
2018-03-04T23:29:01.730Z,0.35
2018-03-04T23:31:27.736Z,0.53
2018-03-04T23:33:53.818Z,0.66
2018-03-04T23:36:19.810Z,0.76
2018-03-04T23:38:45.864Z,0.89
2018-03-04T23:41:11.905Z,0.94
2018-03-04T23:43:37.925Z,0.98
2018-03-04T23:46:03.971Z,0.89
2018-03-04T23:48:30.011Z,0.78
2018-03-04T23:50:56.046Z,0.80
2018-03-04T23:53:22.085Z,0.43
2018-03-04T23:55:48.686Z,0.33
2018-03-04T23:58:14.726Z,0.30
